createdAt,value
2018-01-08T00:00:01.772Z,7.43
2018-01-08T00:01:04.262Z,8.60
2018-01-08T00:02:06.771Z,8.02
2018-01-08T00:03:09.311Z,6.87
2018-01-08T00:04:11.838Z,8.73
2018-01-08T00:05:14.332Z,7.28
2018-01-08T00:06:16.847Z,8.45
2018-01-08T00:07:19.362Z,11.27
2018-01-08T00:08:21.866Z,11.77
2018-01-08T00:09:25.160Z,7.10
2018-01-08T00:10:28.435Z,7.68
2018-01-08T00:11:30.969Z,8.60
2018-01-08T00:12:33.517Z,6.22
2018-01-08T00:13:36.068Z,7.80
2018-01-08T00:14:38.563Z,6.85
2018-01-08T00:15:41.056Z,7.55
2018-01-08T00:16:43.556Z,6.55
2018-01-08T00:17:46.057Z,8.50
2018-01-08T00:18:49.350Z,11.18
2018-01-08T00:19:51.851Z,7.95
2018-01-08T00:20:54.353Z,5.95
2018-01-08T00:21:56.844Z,7.72
2018-01-08T00:23:00.108Z,8.63
2018-01-08T00:24:02.624Z,7.78
2018-01-08T00:25:05.119Z,7.72
2018-01-08T00:26:07.609Z,8.68
2018-01-08T00:27:10.102Z,8.57
2018-01-08T00:28:12.704Z,7.75
2018-01-08T00:29:15.232Z,7.05
2018-01-08T00:30:18.646Z,7.22
2018-01-08T00:32:24.990Z,7.65
2018-01-08T00:33:27.480Z,6.50
2018-01-08T00:34:30.011Z,6.50
2018-01-08T00:35:32.524Z,7.05
2018-01-08T00:36:35.021Z,10.20
2018-01-08T00:37:37.515Z,6.50
2018-01-08T00:38:40.010Z,8.63
2018-01-08T00:39:43.047Z,7.28
2018-01-08T00:42:24.774Z,6.50
2018-01-08T00:43:27.282Z,9.85
2018-01-08T00:44:29.766Z,7.05
2018-01-08T00:45:33.020Z,6.50
2018-01-08T00:46:36.228Z,6.40
2018-01-08T00:47:38.737Z,8.15
2018-01-08T00:48:41.225Z,12.63
2018-01-08T00:49:43.686Z,7.32
2018-01-08T00:50:46.180Z,6.03
2018-01-08T00:51:48.676Z,9.77
2018-01-08T00:52:51.153Z,5.30
2018-01-08T00:53:54.411Z,7.82
2018-01-08T00:54:56.909Z,5.15
2018-01-08T00:55:59.389Z,5.57
2018-01-08T00:57:01.899Z,7.12
2018-01-08T00:58:04.376Z,6.30
2018-01-08T00:59:06.891Z,4.87
2018-01-08T01:00:09.365Z,8.10
2018-01-08T01:01:12.630Z,6.50
2018-01-08T01:02:15.345Z,5.72
2018-01-08T01:03:18.632Z,7.90
2018-01-08T01:04:21.920Z,6.62
2018-01-08T01:05:24.386Z,8.32
2018-01-08T01:06:27.651Z,7.87
2018-01-08T01:07:30.131Z,6.93
2018-01-08T01:08:32.617Z,6.32
2018-01-08T01:09:35.873Z,5.25
2018-01-08T01:10:38.360Z,8.40
2018-01-08T01:11:40.836Z,6.57
2018-01-08T01:12:44.076Z,7.90
2018-01-08T01:13:46.568Z,7.75
2018-01-08T01:14:49.157Z,5.60
2018-01-08T01:15:51.641Z,9.45
2018-01-08T01:16:54.134Z,6.70
2018-01-08T01:17:56.608Z,5.72
2018-01-08T01:18:59.119Z,6.80
2018-01-08T01:20:01.619Z,9.10
2018-01-08T01:21:05.195Z,6.47
2018-01-08T01:22:07.671Z,6.00
2018-01-08T01:23:10.169Z,6.20
2018-01-08T01:24:12.684Z,6.90
2018-01-08T01:25:15.173Z,6.37
2018-01-08T01:26:17.656Z,6.00
2018-01-08T01:27:20.130Z,10.57
2018-01-08T01:28:23.418Z,6.95
2018-01-08T01:29:25.878Z,5.32
2018-01-08T01:30:28.366Z,8.48
2018-01-08T01:31:31.674Z,5.37
2018-01-08T01:32:34.211Z,5.80
2018-01-08T01:33:36.685Z,7.60
2018-01-08T01:34:39.176Z,7.68
2018-01-08T01:35:42.424Z,7.18
2018-01-08T01:36:44.913Z,5.45
2018-01-08T01:37:47.385Z,9.07
2018-01-08T01:38:49.872Z,7.00
2018-01-08T01:39:52.377Z,6.50
2018-01-08T01:40:54.888Z,5.30
2018-01-08T01:41:57.381Z,7.50
2018-01-08T01:43:00.648Z,6.22
2018-01-08T01:44:03.137Z,6.25
2018-01-08T01:45:06.384Z,10.13
2018-01-08T01:46:08.885Z,6.18
2018-01-08T01:47:11.366Z,7.55
2018-01-08T01:48:13.869Z,8.02
2018-01-08T01:49:21.176Z,11.65
2018-01-08T01:50:23.652Z,12.27
2018-01-08T01:51:26.218Z,6.45
2018-01-08T01:52:28.742Z,7.43
2018-01-08T01:53:32.429Z,7.57
2018-01-08T01:54:35.895Z,7.03
2018-01-08T01:55:38.369Z,7.97
2018-01-08T01:56:40.864Z,8.00
2018-01-08T01:57:43.680Z,8.30
2018-01-08T01:58:46.150Z,8.77
2018-01-08T01:59:48.626Z,7.05
2018-01-08T02:00:51.109Z,12.57
2018-01-08T02:01:53.580Z,6.90
2018-01-08T02:02:56.166Z,9.88
2018-01-08T02:03:58.649Z,8.85
2018-01-08T02:05:01.136Z,6.55
2018-01-08T02:06:04.394Z,7.60
2018-01-08T02:07:06.874Z,9.70
2018-01-08T02:08:09.364Z,8.18
2018-01-08T02:09:12.730Z,9.13
2018-01-08T02:10:15.237Z,7.75
2018-01-08T02:11:17.713Z,10.75
2018-01-08T02:12:20.214Z,7.40
2018-01-08T02:13:22.695Z,7.05
2018-01-08T02:14:25.192Z,9.40
2018-01-08T02:28:17.688Z,5.25
2018-01-08T02:29:20.945Z,10.10
2018-01-08T02:30:23.432Z,7.93
2018-01-08T02:31:25.904Z,7.28
2018-01-08T02:32:29.123Z,10.20
2018-01-08T02:33:32.397Z,8.93
2018-01-08T02:34:35.656Z,7.75
2018-01-08T02:35:38.130Z,8.55
2018-01-08T02:36:40.603Z,7.82
2018-01-08T02:37:43.087Z,9.05
2018-01-08T02:38:45.566Z,12.27
2018-01-08T02:39:48.827Z,8.38
2018-01-08T02:40:51.778Z,9.05
2018-01-08T02:41:54.305Z,8.07
2018-01-08T02:42:56.784Z,7.40
2018-01-08T02:43:59.268Z,8.88
2018-01-08T02:45:02.358Z,8.65
2018-01-08T02:46:05.730Z,7.05
2018-01-08T02:47:08.425Z,6.82
2018-01-08T02:48:11.181Z,7.72
2018-01-08T02:49:13.680Z,7.60
2018-01-08T02:50:16.151Z,9.60
2018-01-08T02:51:18.637Z,12.20
2018-01-08T02:52:21.110Z,7.25
2018-01-08T02:53:23.610Z,8.10
2018-01-08T02:54:26.325Z,8.35
2018-01-08T02:55:31.511Z,8.10
2018-01-08T02:56:34.103Z,6.00
2018-01-08T02:57:37.349Z,8.93
2018-01-08T02:58:40.604Z,7.80
2018-01-08T02:59:43.101Z,9.98
2018-01-08T03:00:45.568Z,8.25
2018-01-08T03:01:48.040Z,7.03
2018-01-08T03:02:50.521Z,9.65
2018-01-08T03:03:53.068Z,6.20
2018-01-08T03:04:55.754Z,8.55
2018-01-08T03:05:58.251Z,7.40
2018-01-08T03:07:00.744Z,8.98
2018-01-08T03:08:03.227Z,6.40
2018-01-08T03:09:06.548Z,11.05
2018-01-08T03:10:09.046Z,6.93
2018-01-08T03:11:11.526Z,10.00
2018-01-08T03:12:14.013Z,7.47
2018-01-08T03:13:16.487Z,7.60
2018-01-08T03:14:19.880Z,15.65
2018-01-08T03:15:22.356Z,7.35
2018-01-08T03:16:26.335Z,9.95
2018-01-08T03:17:28.839Z,11.40
2018-01-08T03:18:32.105Z,7.70
2018-01-08T03:19:34.593Z,7.65
2018-01-08T03:20:37.862Z,7.97
2018-01-08T03:21:40.352Z,8.02
2018-01-08T03:22:43.612Z,8.35
2018-01-08T03:23:46.089Z,6.20
2018-01-08T03:24:48.585Z,7.40
2018-01-08T03:25:51.819Z,10.13
2018-01-08T03:26:54.362Z,8.93
2018-01-08T03:27:57.388Z,8.73
2018-01-08T03:29:00.748Z,7.03
2018-01-08T03:30:04.001Z,8.18
2018-01-08T03:31:07.627Z,6.00
2018-01-08T03:32:10.137Z,8.18
2018-01-08T03:33:12.609Z,12.45
2018-01-08T03:34:16.208Z,8.52
2018-01-08T03:35:18.682Z,6.50
2018-01-08T03:36:21.179Z,7.72
2018-01-08T03:37:23.652Z,7.60
2018-01-08T03:38:26.134Z,7.60
2018-01-08T03:39:28.598Z,7.97
2018-01-08T03:40:31.087Z,7.05
2018-01-08T03:41:33.577Z,7.18
2018-01-08T03:42:36.057Z,6.37
2018-01-08T03:43:38.534Z,8.43
2018-01-08T03:44:41.017Z,7.20
2018-01-08T03:45:43.508Z,10.13
2018-01-08T03:46:46.081Z,6.90
2018-01-08T03:47:49.321Z,7.12
2018-01-08T03:48:51.783Z,9.48
2018-01-08T03:49:54.247Z,8.18
2018-01-08T03:50:56.728Z,11.32
2018-01-08T03:52:00.006Z,5.85
2018-01-08T03:53:03.278Z,7.70
2018-01-08T03:54:05.754Z,9.00
2018-01-08T03:55:08.234Z,6.62
2018-01-08T03:56:11.476Z,7.25
2018-01-08T03:57:13.941Z,7.15
2018-01-08T03:58:16.420Z,6.70
2018-01-08T03:59:19.135Z,8.38
2018-01-08T04:00:21.614Z,9.10
2018-01-08T04:01:25.086Z,5.60
2018-01-08T04:02:27.578Z,5.93
2018-01-08T04:03:31.060Z,8.82
2018-01-08T04:04:33.540Z,7.78
2018-01-08T04:05:36.800Z,8.60
2018-01-08T04:06:39.259Z,7.85
2018-01-08T04:07:41.759Z,7.50
2018-01-08T04:08:44.258Z,6.97
2018-01-08T04:09:46.749Z,7.70
2018-01-08T04:10:49.224Z,5.25
2018-01-08T04:11:51.713Z,9.35
2018-01-08T04:12:54.234Z,10.98
2018-01-08T04:13:56.785Z,9.05
2018-01-08T04:14:59.272Z,6.45
2018-01-08T04:16:02.519Z,11.07
2018-01-08T04:17:04.993Z,10.52
2018-01-08T04:18:07.525Z,6.95
2018-01-08T04:19:10.462Z,7.40
2018-01-08T04:20:12.939Z,9.02
2018-01-08T04:21:16.292Z,8.50
2018-01-08T04:22:18.772Z,7.72
2018-01-08T04:23:21.325Z,8.23
2018-01-08T04:24:24.441Z,7.40
2018-01-08T04:25:26.954Z,7.93
2018-01-08T04:26:29.414Z,6.62
2018-01-08T04:27:31.894Z,7.50
2018-01-08T04:28:34.369Z,6.40
2018-01-08T04:29:36.849Z,6.97
2018-01-08T04:30:39.325Z,7.35
2018-01-08T04:31:41.809Z,7.25
2018-01-08T04:32:44.281Z,9.18
2018-01-08T04:33:46.782Z,8.88
2018-01-08T04:34:49.312Z,7.75
2018-01-08T04:35:51.805Z,7.47
2018-01-08T04:36:54.325Z,7.90
2018-01-08T04:37:56.820Z,6.65
2018-01-08T04:38:59.295Z,9.77
2018-01-08T04:40:02.257Z,7.00
2018-01-08T04:41:04.749Z,7.45
2018-01-08T04:42:07.565Z,7.75
2018-01-08T04:43:10.060Z,10.30
2018-01-08T04:44:12.554Z,6.62
2018-01-08T04:45:15.083Z,9.70
2018-01-08T04:46:18.317Z,8.02
2018-01-08T04:47:20.802Z,5.80
2018-01-08T04:48:23.276Z,7.57
2018-01-08T04:49:25.748Z,8.32
2018-01-08T04:50:28.977Z,6.93
2018-01-08T04:51:32.217Z,8.10
2018-01-08T04:52:34.700Z,9.02
2018-01-08T04:53:37.187Z,9.10
2018-01-08T04:54:39.733Z,7.00
2018-01-08T04:55:42.237Z,6.95
2018-01-08T04:56:45.473Z,7.85
2018-01-08T04:57:47.961Z,8.88
2018-01-08T04:58:50.446Z,7.55
2018-01-08T04:59:53.171Z,10.23
2018-01-08T05:00:56.508Z,9.02
2018-01-08T05:01:58.996Z,11.07
2018-01-08T05:03:01.476Z,6.97
2018-01-08T05:04:04.745Z,7.68
2018-01-08T05:05:07.220Z,6.05
2018-01-08T05:06:09.717Z,15.00
2018-01-08T05:07:12.263Z,8.20
2018-01-08T05:08:15.522Z,6.80
2018-01-08T05:09:18.012Z,8.55
2018-01-08T05:10:20.485Z,8.40
2018-01-08T05:11:22.980Z,9.98
2018-01-08T05:12:26.247Z,9.07
2018-01-08T05:13:28.720Z,6.15
2018-01-08T05:14:31.187Z,8.68
2018-01-08T05:15:33.678Z,10.43
2018-01-08T05:16:37.396Z,8.27
2018-01-08T05:17:39.896Z,10.48
2018-01-08T05:18:42.364Z,8.55
2018-01-08T05:19:44.869Z,8.38
2018-01-08T05:20:47.349Z,9.10
2018-01-08T05:21:50.679Z,7.37
2018-01-08T05:22:53.143Z,8.32
2018-01-08T05:23:56.114Z,11.25
2018-01-08T05:24:58.597Z,9.70
2018-01-08T05:26:01.076Z,10.05
2018-01-08T05:27:03.581Z,7.90
2018-01-08T05:28:06.132Z,9.15
2018-01-08T05:29:08.624Z,7.70
2018-01-08T05:30:11.092Z,9.15
2018-01-08T05:31:13.575Z,9.57
2018-01-08T05:32:16.097Z,7.70
2018-01-08T05:33:18.613Z,11.27
2018-01-08T05:34:21.081Z,10.10
2018-01-08T05:35:24.499Z,8.80
2018-01-08T05:36:27.065Z,7.78
2018-01-08T05:37:31.051Z,8.50
2018-01-08T05:38:33.543Z,7.37
2018-01-08T05:39:36.787Z,13.27
2018-01-08T05:40:39.354Z,6.60
2018-01-08T05:41:41.819Z,9.80
2018-01-08T05:42:44.308Z,7.60
2018-01-08T05:43:47.914Z,7.18
2018-01-08T05:44:50.404Z,9.48
2018-01-08T05:45:53.654Z,8.00
2018-01-08T05:46:56.130Z,7.45
2018-01-08T05:47:58.605Z,8.65
2018-01-08T05:49:01.114Z,10.98
2018-01-08T05:50:04.382Z,11.05
2018-01-08T05:51:06.868Z,10.18
2018-01-08T05:52:09.370Z,8.35
2018-01-08T05:53:11.844Z,7.82
2018-01-08T05:54:14.365Z,11.10
2018-01-08T05:55:17.701Z,7.90
2018-01-08T05:56:20.180Z,9.80
2018-01-08T05:57:22.653Z,6.80
2018-01-08T05:58:25.130Z,10.98
2018-01-08T05:59:27.602Z,9.32
2018-01-08T06:00:30.139Z,9.77
2018-01-08T06:01:32.618Z,10.43
2018-01-08T06:02:35.112Z,9.45
2018-01-08T06:03:37.653Z,9.95
2018-01-08T06:04:40.236Z,10.38
2018-01-08T06:05:42.743Z,10.45
2018-01-08T06:06:45.285Z,9.48
2018-01-08T06:07:48.577Z,9.90
2018-01-08T06:08:51.096Z,9.32
2018-01-08T06:09:53.612Z,10.55
2018-01-08T06:10:56.200Z,5.97
2018-01-08T06:11:58.677Z,10.60
2018-01-08T06:13:01.220Z,9.77
2018-01-08T06:14:03.715Z,8.23
2018-01-08T06:24:46.980Z,9.50
2018-01-08T06:25:49.453Z,9.32
2018-01-08T06:26:51.949Z,9.10
2018-01-08T06:27:54.441Z,9.40
2018-01-08T06:28:56.928Z,9.32
2018-01-08T06:29:59.425Z,11.38
2018-01-08T06:31:01.916Z,12.68
2018-01-08T06:32:05.223Z,10.70
2018-01-08T06:33:07.718Z,10.90
2018-01-08T06:34:10.286Z,10.82
2018-01-08T06:35:12.780Z,9.02
2018-01-08T06:36:15.274Z,11.57
2018-01-08T06:37:17.781Z,11.73
2018-01-08T06:38:20.288Z,11.40
2018-01-08T06:39:22.765Z,9.68
2018-01-08T06:40:25.276Z,14.63
2018-01-08T06:41:28.551Z,10.88
2018-01-08T06:42:31.050Z,10.63
2018-01-08T06:43:33.558Z,12.98
2018-01-08T06:44:37.314Z,13.75
2018-01-08T06:45:39.818Z,10.40
2018-01-08T06:46:42.307Z,11.23
2018-01-08T06:47:45.387Z,13.10
2018-01-08T06:48:47.869Z,11.15
2018-01-08T06:49:50.343Z,17.35
2018-01-08T06:50:52.812Z,11.35
2018-01-08T06:51:55.316Z,11.68
2018-01-08T06:52:57.809Z,11.48
2018-01-08T06:54:00.892Z,11.20
2018-01-08T06:55:03.376Z,11.07
2018-01-08T06:56:05.852Z,11.27
2018-01-08T06:57:08.355Z,12.48
2018-01-08T06:58:10.897Z,10.55
2018-01-08T06:59:13.394Z,12.20
2018-01-08T07:00:15.950Z,13.02
2018-01-08T07:01:18.424Z,11.05
2018-01-08T07:02:20.913Z,14.73
2018-01-08T07:03:23.403Z,13.50
2018-01-08T07:04:25.906Z,17.25
2018-01-08T07:05:28.380Z,10.80
2018-01-08T07:06:30.871Z,11.50
2018-01-08T07:07:33.364Z,12.30
2018-01-08T07:08:35.844Z,14.77
2018-01-08T07:09:39.129Z,12.93
2018-01-08T07:10:41.612Z,13.85
2018-01-08T07:11:44.874Z,11.60
2018-01-08T07:12:47.417Z,12.73
2018-01-08T07:13:49.932Z,11.45
2018-01-08T07:14:52.427Z,12.70
2018-01-08T07:15:54.937Z,13.18
2018-01-08T07:16:57.468Z,14.27
2018-01-08T07:17:59.973Z,11.15
2018-01-08T07:19:02.481Z,12.88
2018-01-08T07:20:04.989Z,13.85
2018-01-08T07:21:07.466Z,13.70
2018-01-08T07:22:09.986Z,17.75
2018-01-08T07:23:12.470Z,13.02
2018-01-08T07:24:15.467Z,11.55
2018-01-08T07:25:18.729Z,12.93
2018-01-08T07:26:21.268Z,13.50
2018-01-08T07:27:23.774Z,15.18
2018-01-08T07:28:26.271Z,17.15
2018-01-08T07:29:29.732Z,14.10
2018-01-08T07:30:33.013Z,16.00
2018-01-08T07:31:35.486Z,13.50
2018-01-08T07:32:37.978Z,12.05
2018-01-08T07:33:41.238Z,12.40
2018-01-08T07:34:43.719Z,12.95
2018-01-08T07:35:47.084Z,11.68
2018-01-08T07:36:49.592Z,10.65
2018-01-08T07:37:52.073Z,16.80
2018-01-08T07:38:54.544Z,13.98
2018-01-08T07:39:57.024Z,14.13
2018-01-08T07:40:59.744Z,15.00
2018-01-08T07:42:02.244Z,12.73
2018-01-08T07:43:04.729Z,13.27
2018-01-08T07:44:07.971Z,11.60
2018-01-08T07:58:01.058Z,14.65
2018-01-08T07:59:03.554Z,8.75
2018-01-08T08:00:06.755Z,13.25
2018-01-08T08:01:09.256Z,14.90
2018-01-08T08:02:11.749Z,16.25
2018-01-08T08:03:15.029Z,11.52
2018-01-08T08:04:17.536Z,12.65
2018-01-08T08:05:20.532Z,16.70
2018-01-08T08:06:23.037Z,14.55
2018-01-08T08:07:25.800Z,15.10
2018-01-08T08:08:28.295Z,12.40
2018-01-08T08:09:30.868Z,12.48
2018-01-08T08:10:33.355Z,12.77
2018-01-08T08:11:35.861Z,11.60
2018-01-08T08:12:38.343Z,15.05
2018-01-08T08:13:40.839Z,17.70
2018-01-08T08:14:43.325Z,12.88
2018-01-08T08:15:45.814Z,12.02
2018-01-08T08:16:48.289Z,11.07
2018-01-08T08:17:50.781Z,11.52
2018-01-08T08:18:53.274Z,13.48
2018-01-08T08:19:56.100Z,14.15
2018-01-08T08:20:58.584Z,14.10
2018-01-08T08:22:01.930Z,13.95
2018-01-08T08:23:05.197Z,13.50
2018-01-08T08:24:07.699Z,14.20
2018-01-08T08:25:10.204Z,11.93
2018-01-08T08:26:12.697Z,13.00
2018-01-08T08:27:15.179Z,14.02
2018-01-08T08:28:17.685Z,12.20
2018-01-08T08:29:20.183Z,19.15
2018-01-08T08:30:22.679Z,11.65
2018-01-08T08:31:25.592Z,14.00
2018-01-08T08:32:28.089Z,17.87
2018-01-08T08:33:30.582Z,13.45
2018-01-08T08:34:33.077Z,12.05
2018-01-08T08:35:35.563Z,14.50
2018-01-08T08:36:38.827Z,17.92
2018-01-08T08:37:41.332Z,16.67
2018-01-08T08:38:44.594Z,15.43
2018-01-08T08:39:47.082Z,12.57
2018-01-08T08:40:50.361Z,11.10
2018-01-08T08:41:53.659Z,13.18
2018-01-08T08:42:56.914Z,16.10
2018-01-08T08:43:59.396Z,16.25
2018-01-08T08:45:01.920Z,13.73
2018-01-08T08:46:04.418Z,11.15
2018-01-08T08:47:06.914Z,17.98
2018-01-08T08:48:09.745Z,14.40
2018-01-08T08:49:12.246Z,18.62
2018-01-08T08:50:14.733Z,12.32
2018-01-08T08:51:17.238Z,10.45
2018-01-08T08:52:19.734Z,13.40
2018-01-08T08:53:22.201Z,12.75
2018-01-08T08:54:24.683Z,12.23
2018-01-08T08:55:27.175Z,16.02
2018-01-08T08:56:30.219Z,14.95
2018-01-08T08:57:32.702Z,12.43
2018-01-08T08:58:35.203Z,14.23
2018-01-08T08:59:37.731Z,13.40
2018-01-08T09:00:40.288Z,11.07
2018-01-08T09:01:43.537Z,12.55
2018-01-08T09:02:46.147Z,13.02
2018-01-08T09:03:48.665Z,13.48
2018-01-08T09:04:51.153Z,13.80
2018-01-08T09:05:53.760Z,12.20
2018-01-08T09:06:56.253Z,14.80
2018-01-08T09:07:58.740Z,14.38
2018-01-08T09:09:01.232Z,12.73
2018-01-08T09:10:03.819Z,11.38
2018-01-08T09:11:06.953Z,16.60
2018-01-08T09:12:09.469Z,10.35
2018-01-08T09:13:12.001Z,14.00
2018-01-08T09:14:14.517Z,17.20
2018-01-08T09:15:16.989Z,13.13
2018-01-08T09:16:19.478Z,12.18
2018-01-08T09:17:23.559Z,11.80
2018-01-08T09:18:26.049Z,15.23
2018-01-08T09:19:29.315Z,15.05
2018-01-08T09:20:31.792Z,13.23
2018-01-08T09:21:34.280Z,11.25
2018-01-08T09:22:36.785Z,13.77
2018-01-08T09:23:39.281Z,11.70
2018-01-08T09:24:41.825Z,14.43
2018-01-08T09:25:44.304Z,12.60
2018-01-08T09:26:46.801Z,12.23
2018-01-08T09:27:49.714Z,15.02
2018-01-08T09:28:52.417Z,14.85
2018-01-08T09:29:54.932Z,15.15
2018-01-08T09:30:57.409Z,12.20
2018-01-08T09:31:59.895Z,15.40
2018-01-08T09:33:03.181Z,14.73
2018-01-08T09:34:06.423Z,13.50
2018-01-08T09:35:09.628Z,12.30
2018-01-08T09:36:12.182Z,11.02
2018-01-08T09:37:14.747Z,10.18
2018-01-08T09:38:17.834Z,12.98
2018-01-08T09:39:20.439Z,12.20
2018-01-08T09:40:23.757Z,12.18
2018-01-08T09:41:26.936Z,10.52
2018-01-08T09:42:31.056Z,13.85
2018-01-08T09:43:33.944Z,13.25
2018-01-08T09:44:38.714Z,11.90
2018-01-08T09:45:41.209Z,12.30
2018-01-08T09:46:43.787Z,10.85
2018-01-08T09:47:46.501Z,11.05
2018-01-08T09:48:51.819Z,11.73
2018-01-08T09:49:55.645Z,12.52
2018-01-08T09:50:58.378Z,17.30
2018-01-08T09:52:00.876Z,11.27
2018-01-08T09:53:03.357Z,12.30
2018-01-08T09:54:05.986Z,13.60
2018-01-08T09:55:09.329Z,13.88
2018-01-08T09:56:11.839Z,14.05
2018-01-08T09:57:14.323Z,14.75
2018-01-08T09:58:17.588Z,13.05
2018-01-08T09:59:20.165Z,16.33
2018-01-08T10:00:22.754Z,10.40
2018-01-08T10:01:26.857Z,12.43
2018-01-08T10:02:28.851Z,15.88
2018-01-08T10:03:43.175Z,9.35
2018-01-08T10:04:58.141Z,14.18
2018-01-08T10:06:13.142Z,12.35
2018-01-08T10:07:28.968Z,10.80
2018-01-08T10:08:43.134Z,10.15
2018-01-08T10:09:58.230Z,10.65
2018-01-08T10:11:12.378Z,11.98
2018-01-08T10:12:26.782Z,11.35
2018-01-08T10:13:40.871Z,9.15
2018-01-08T10:14:54.970Z,11.20
2018-01-08T10:16:09.170Z,11.80
2018-01-08T10:17:24.122Z,9.05
2018-01-08T10:18:26.449Z,10.15
2018-01-08T10:19:41.305Z,12.40
2018-01-08T10:20:43.843Z,12.95
2018-01-08T10:21:46.365Z,11.00
2018-01-08T10:22:49.653Z,10.50
2018-01-08T10:23:52.939Z,9.63
2018-01-08T10:24:55.450Z,9.60
2018-01-08T10:25:58.205Z,11.68
2018-01-08T10:27:00.695Z,8.77
2018-01-08T10:28:03.762Z,11.18
2018-01-08T10:29:06.263Z,12.88
2018-01-08T10:30:09.078Z,10.23
2018-01-08T10:31:12.395Z,13.18
2018-01-08T10:32:15.043Z,9.70
2018-01-08T10:33:17.512Z,12.07
2018-01-08T10:34:20.044Z,12.13
2018-01-08T10:35:22.536Z,11.07
2018-01-08T10:36:25.263Z,12.60
2018-01-08T10:37:28.541Z,11.88
2018-01-08T10:38:31.117Z,10.38
2018-01-08T10:39:33.664Z,15.98
2018-01-08T10:40:36.917Z,12.05
2018-01-08T10:41:44.945Z,10.98
2018-01-08T10:42:52.960Z,16.87
2018-01-08T10:44:01.729Z,11.45
2018-01-08T10:45:09.914Z,17.55
2018-01-08T10:46:17.987Z,10.57
2018-01-08T10:47:26.941Z,10.23
2018-01-08T10:48:34.954Z,10.80
2018-01-08T10:49:43.370Z,10.40
2018-01-08T10:50:51.479Z,13.38
2018-01-08T10:51:53.515Z,11.90
2018-01-08T10:52:58.695Z,13.15
2018-01-08T10:54:01.238Z,8.65
2018-01-08T10:55:08.028Z,13.38
2018-01-08T10:56:10.574Z,10.05
2018-01-08T10:57:13.085Z,13.20
2018-01-08T10:58:15.583Z,11.27
2018-01-08T10:59:18.841Z,11.75
2018-01-08T11:00:21.354Z,10.25
2018-01-08T11:01:29.630Z,11.02
2018-01-08T11:02:38.593Z,13.00
2018-01-08T11:03:46.640Z,11.77
2018-01-08T11:04:49.122Z,12.63
2018-01-08T11:05:52.381Z,12.30
2018-01-08T11:06:54.866Z,10.40
2018-01-08T11:07:57.361Z,12.35
2018-01-08T11:09:00.644Z,7.72
2018-01-08T11:10:03.898Z,12.90
2018-01-08T11:11:06.376Z,10.63
2018-01-08T11:12:08.884Z,12.50
2018-01-08T11:13:12.131Z,10.25
2018-01-08T11:14:15.736Z,10.93
2018-01-08T11:15:18.299Z,12.75
2018-01-08T11:16:20.792Z,13.95
2018-01-08T11:17:23.294Z,14.32
2018-01-08T11:18:26.669Z,11.07
2018-01-08T11:19:29.924Z,11.15
2018-01-08T11:20:32.418Z,9.20
2018-01-08T11:21:34.884Z,10.00
2018-01-08T11:22:37.414Z,11.23
2018-01-08T11:23:39.927Z,11.88
2018-01-08T11:24:43.190Z,12.98
2018-01-08T11:25:45.679Z,14.27
2018-01-08T11:26:48.266Z,13.48
2018-01-08T11:27:51.787Z,11.57
2018-01-08T11:28:54.292Z,9.82
2018-01-08T11:29:56.809Z,9.95
2018-01-08T11:30:59.313Z,12.13
2018-01-08T11:32:01.825Z,13.52
2018-01-08T11:33:04.335Z,12.70
2018-01-08T11:34:06.948Z,10.02
2018-01-08T11:35:09.462Z,10.82
2018-01-08T11:36:12.701Z,13.55
2018-01-08T11:37:15.183Z,12.50
2018-01-08T11:38:18.269Z,9.35
2018-01-08T11:39:20.740Z,11.02
2018-01-08T11:40:23.230Z,10.13
2018-01-08T11:41:25.749Z,10.00
2018-01-08T11:42:28.221Z,11.27
2018-01-08T11:43:30.728Z,11.38
2018-01-08T11:44:34.099Z,10.93
2018-01-08T11:45:37.685Z,10.32
2018-01-08T11:46:40.224Z,14.50
2018-01-08T11:47:43.462Z,9.35
2018-01-08T11:48:45.959Z,12.30
2018-01-08T11:49:48.470Z,9.88
2018-01-08T11:50:50.995Z,12.27
2018-01-08T11:51:53.501Z,11.43
2018-01-08T11:52:56.770Z,9.85
2018-01-08T11:54:00.100Z,9.77
2018-01-08T11:55:02.577Z,17.25
2018-01-08T11:56:05.104Z,15.55
2018-01-08T11:57:08.339Z,11.30
2018-01-08T11:58:10.828Z,9.38
2018-01-08T11:59:13.531Z,12.73
2018-01-08T12:00:16.024Z,19.00
2018-01-08T12:01:19.326Z,9.95
2018-01-08T12:02:21.844Z,12.35
2018-01-08T12:03:24.355Z,8.98
2018-01-08T12:04:26.872Z,9.57
2018-01-08T12:05:29.379Z,10.07
2018-01-08T12:06:32.660Z,9.90
2018-01-08T12:07:35.934Z,11.95
2018-01-08T12:08:38.434Z,12.15
2018-01-08T12:09:40.944Z,12.93
2018-01-08T12:10:43.424Z,10.57
2018-01-08T12:11:46.269Z,11.50
2018-01-08T12:12:48.738Z,9.57
2018-01-08T12:13:51.211Z,11.50
2018-01-08T12:14:53.701Z,11.55
2018-01-08T12:15:56.181Z,14.23
2018-01-08T12:16:58.676Z,8.90
2018-01-08T12:18:01.185Z,13.05
2018-01-08T12:19:03.653Z,11.20
2018-01-08T12:20:06.171Z,10.40
2018-01-08T12:21:08.637Z,12.95
2018-01-08T12:22:11.905Z,10.07
2018-01-08T12:23:14.380Z,9.02
2018-01-08T12:24:17.086Z,10.32
2018-01-08T12:25:19.569Z,10.65
2018-01-08T12:26:22.066Z,9.68
2018-01-08T12:27:24.557Z,10.02
2018-01-08T12:28:27.056Z,10.75
2018-01-08T12:29:29.566Z,11.30
2018-01-08T12:30:32.827Z,11.10
2018-01-08T12:31:35.417Z,12.15
2018-01-08T12:32:38.678Z,13.60
2018-01-08T12:33:41.210Z,12.35
2018-01-08T12:34:43.747Z,13.23
2018-01-08T12:35:46.237Z,8.02
2018-01-08T12:36:48.753Z,10.57
2018-01-08T12:37:51.241Z,10.45
2018-01-08T12:38:53.737Z,8.25
2018-01-08T12:39:56.224Z,12.45
2018-01-08T12:40:58.724Z,13.18
2018-01-08T12:42:01.209Z,11.85
2018-01-08T12:43:03.703Z,12.18
2018-01-08T12:44:07.152Z,9.75
2018-01-08T12:45:09.650Z,7.90
2018-01-08T12:46:12.150Z,9.50
2018-01-08T12:47:15.396Z,11.50
2018-01-08T12:48:17.889Z,10.80
2018-01-08T12:49:20.396Z,9.05
2018-01-08T12:50:22.895Z,8.63
2018-01-08T12:51:27.853Z,11.93
2018-01-08T12:52:32.189Z,12.07
2018-01-08T12:53:34.743Z,11.20
2018-01-08T12:54:38.561Z,10.52
2018-01-08T12:55:43.619Z,7.80
2018-01-08T12:56:46.105Z,8.70
2018-01-08T12:57:48.663Z,11.18
2018-01-08T12:58:51.148Z,11.05
2018-01-08T12:59:55.662Z,9.65
2018-01-08T13:00:59.567Z,17.77
2018-01-08T13:02:03.027Z,11.48
2018-01-08T13:03:05.541Z,9.85
2018-01-08T13:04:08.021Z,8.27
2018-01-08T13:05:11.060Z,13.95
2018-01-08T13:06:13.548Z,10.75
2018-01-08T13:07:20.841Z,12.15
2018-01-08T13:08:23.342Z,9.45
2018-01-08T13:09:25.850Z,12.40
2018-01-08T13:10:28.379Z,10.63
2018-01-08T13:11:31.031Z,9.73
2018-01-08T13:12:33.519Z,10.25
2018-01-08T13:13:35.993Z,8.60
2018-01-08T13:14:38.720Z,9.27
2018-01-08T13:15:41.294Z,8.18
2018-01-08T13:16:43.800Z,11.85
2018-01-08T13:17:46.297Z,10.07
2018-01-08T13:18:48.798Z,7.95
2018-01-08T13:19:51.279Z,9.13
2018-01-08T13:20:53.777Z,8.38
2018-01-08T13:21:57.033Z,8.50
2018-01-08T13:35:49.550Z,10.30
2018-01-08T13:36:52.059Z,10.35
2018-01-08T13:37:54.576Z,8.27
2018-01-08T13:51:47.329Z,9.18
2018-01-08T13:52:49.833Z,11.23
2018-01-08T13:53:52.403Z,11.57
2018-01-08T13:54:54.901Z,11.65
2018-01-08T13:55:57.432Z,9.90
2018-01-08T13:56:59.963Z,12.20
2018-01-08T13:58:03.247Z,11.12
2018-01-08T13:59:05.827Z,10.50
2018-01-08T14:00:08.383Z,14.63
2018-01-08T14:01:10.880Z,11.38
2018-01-08T14:02:13.378Z,16.40
2018-01-08T14:03:15.975Z,14.77
2018-01-08T14:04:18.475Z,13.38
2018-01-08T14:05:21.803Z,15.73
2018-01-08T14:06:24.505Z,13.50
2018-01-08T14:07:27.007Z,11.80
2018-01-08T14:08:30.408Z,12.40
2018-01-08T14:09:33.658Z,14.57
2018-01-08T14:10:36.165Z,11.15
2018-01-08T14:11:38.720Z,11.88
2018-01-08T14:12:42.998Z,15.52
2018-01-08T14:13:45.576Z,12.93
2018-01-08T14:14:48.097Z,12.60
2018-01-08T14:15:50.608Z,10.10
2018-01-08T14:16:53.162Z,13.75
2018-01-08T14:17:55.680Z,13.60
2018-01-08T14:18:58.194Z,10.70
2018-01-08T14:20:00.689Z,12.88
2018-01-08T14:21:03.186Z,10.90
2018-01-08T14:22:05.730Z,12.93
2018-01-08T14:23:08.251Z,12.75
2018-01-08T14:24:10.814Z,12.57
2018-01-08T14:25:13.333Z,11.32
2018-01-08T14:26:15.834Z,10.63
2018-01-08T14:27:18.369Z,11.60
2018-01-08T14:28:20.861Z,10.68
2018-01-08T14:29:23.344Z,11.95
2018-01-08T14:30:25.856Z,9.35
2018-01-08T14:31:28.341Z,12.60
2018-01-08T14:32:30.859Z,12.35
2018-01-08T14:33:33.952Z,13.95
2018-01-08T14:34:36.452Z,11.43
2018-01-08T14:35:40.139Z,13.75
2018-01-08T14:36:42.629Z,13.23
2018-01-08T14:37:45.926Z,12.77
2018-01-08T14:38:49.454Z,10.93
2018-01-08T14:39:51.986Z,10.77
2018-01-08T14:40:54.524Z,12.05
2018-01-08T14:41:57.028Z,11.02
2018-01-08T14:43:00.372Z,12.40
2018-01-08T14:44:02.871Z,11.73
2018-01-08T14:45:05.379Z,12.15
2018-01-08T14:46:07.943Z,11.85
2018-01-08T14:47:10.446Z,11.27